sensor_id;sensor_type;location;lat;lon;timestamp;P1;durP1;ratioP1;P2;durP2;ratioP2
2159;SDS011;1086;51.610;6.928;2022-08-18T00:00:10;50.93;;;27.63;;
2159;SDS011;1086;51.610;6.928;2022-08-18T00:02:39;50.45;;;27.35;;
2159;SDS011;1086;51.610;6.928;2022-08-18T00:05:05;51.05;;;26.65;;
2159;SDS011;1086;51.610;6.928;2022-08-18T00:07:31;49.85;;;25.65;;
2159;SDS011;1086;51.610;6.928;2022-08-18T00:09:56;55.22;;;27.55;;
2159;SDS011;1086;51.610;6.928;2022-08-18T00:14:51;50.83;;;24.98;;
2159;SDS011;1086;51.610;6.928;2022-08-18T00:17:17;52.20;;;26.33;;
2159;SDS011;1086;51.610;6.928;2022-08-18T00:19:43;52.38;;;26.40;;
2159;SDS011;1086;51.610;6.928;2022-08-18T00:22:09;52.38;;;26.58;;
2159;SDS011;1086;51.610;6.928;2022-08-18T00:24:35;49.10;;;25.67;;
2159;SDS011;1086;51.610;6.928;2022-08-18T00:27:02;50.40;;;27.45;;
2159;SDS011;1086;51.610;6.928;2022-08-18T00:29:27;51.03;;;26.77;;
2159;SDS011;1086;51.610;6.928;2022-08-18T00:31:52;56.50;;;28.33;;
2159;SDS011;1086;51.610;6.928;2022-08-18T00:34:17;55.97;;;27.30;;
2159;SDS011;1086;51.610;6.928;2022-08-18T00:36:43;54.95;;;26.67;;
2159;SDS011;1086;51.610;6.928;2022-08-18T00:39:08;51.35;;;26.13;;
2159;SDS011;1086;51.610;6.928;2022-08-18T00:41:34;51.88;;;26.77;;
2159;SDS011;1086;51.610;6.928;2022-08-18T00:43:59;53.93;;;27.77;;
2159;SDS011;1086;51.610;6.928;2022-08-18T00:46:26;49.97;;;25.70;;
2159;SDS011;1086;51.610;6.928;2022-08-18T00:48:51;57.47;;;27.17;;
2159;SDS011;1086;51.610;6.928;2022-08-18T00:51:19;52.50;;;26.90;;
2159;SDS011;1086;51.610;6.928;2022-08-18T00:53:49;50.33;;;25.85;;
2159;SDS011;1086;51.610;6.928;2022-08-18T00:56:24;56.45;;;27.67;;
2159;SDS011;1086;51.610;6.928;2022-08-18T01:01:47;51.90;;;27.98;;
2159;SDS011;1086;51.610;6.928;2022-08-18T01:04:18;51.17;;;26.58;;
2159;SDS011;1086;51.610;6.928;2022-08-18T01:06:46;55.63;;;28.42;;
2159;SDS011;1086;51.610;6.928;2022-08-18T01:09:12;54.88;;;28.85;;
2159;SDS011;1086;51.610;6.928;2022-08-18T01:11:38;54.20;;;28.02;;
2159;SDS011;1086;51.610;6.928;2022-08-18T01:14:06;54.83;;;28.70;;
2159;SDS011;1086;51.610;6.928;2022-08-18T01:16:35;55.53;;;28.88;;
2159;SDS011;1086;51.610;6.928;2022-08-18T01:19:26;55.47;;;27.33;;
2159;SDS011;1086;51.610;6.928;2022-08-18T01:22:24;42.47;;;19.77;;
2159;SDS011;1086;51.610;6.928;2022-08-18T01:25:20;54.33;;;27.48;;
2159;SDS011;1086;51.610;6.928;2022-08-18T01:28:04;54.00;;;28.42;;
2159;SDS011;1086;51.610;6.928;2022-08-18T01:30:30;52.30;;;27.65;;
2159;SDS011;1086;51.610;6.928;2022-08-18T01:32:56;53.17;;;27.33;;
2159;SDS011;1086;51.610;6.928;2022-08-18T01:35:22;56.65;;;27.90;;
2159;SDS011;1086;51.610;6.928;2022-08-18T01:38:08;58.53;;;27.83;;
2159;SDS011;1086;51.610;6.928;2022-08-18T01:40:39;56.50;;;28.85;;
2159;SDS011;1086;51.610;6.928;2022-08-18T01:46:37;55.00;;;28.98;;
2159;SDS011;1086;51.610;6.928;2022-08-18T01:49:09;54.47;;;27.60;;
2159;SDS011;1086;51.610;6.928;2022-08-18T01:51:46;50.10;;;25.02;;
2159;SDS011;1086;51.610;6.928;2022-08-18T01:54:13;58.35;;;26.90;;
2159;SDS011;1086;51.610;6.928;2022-08-18T01:56:41;57.25;;;27.92;;
2159;SDS011;1086;51.610;6.928;2022-08-18T01:59:14;56.05;;;28.40;;
2159;SDS011;1086;51.610;6.928;2022-08-18T02:01:41;48.63;;;26.08;;
2159;SDS011;1086;51.610;6.928;2022-08-18T02:04:06;57.65;;;27.55;;
2159;SDS011;1086;51.610;6.928;2022-08-18T02:06:31;51.10;;;27.27;;
2159;SDS011;1086;51.610;6.928;2022-08-18T02:08:57;58.30;;;27.13;;
2159;SDS011;1086;51.610;6.928;2022-08-18T02:11:22;57.00;;;28.60;;
2159;SDS011;1086;51.610;6.928;2022-08-18T02:13:47;54.33;;;26.90;;
2159;SDS011;1086;51.610;6.928;2022-08-18T02:16:13;54.92;;;26.52;;
2159;SDS011;1086;51.610;6.928;2022-08-18T02:18:38;59.67;;;28.55;;
2159;SDS011;1086;51.610;6.928;2022-08-18T02:21:10;57.13;;;27.93;;
2159;SDS011;1086;51.610;6.928;2022-08-18T02:23:36;52.95;;;26.98;;
2159;SDS011;1086;51.610;6.928;2022-08-18T02:26:04;56.15;;;27.88;;
2159;SDS011;1086;51.610;6.928;2022-08-18T02:28:30;56.25;;;27.65;;
2159;SDS011;1086;51.610;6.928;2022-08-18T02:30:55;58.83;;;29.08;;
2159;SDS011;1086;51.610;6.928;2022-08-18T02:33:21;52.78;;;27.08;;
2159;SDS011;1086;51.610;6.928;2022-08-18T02:35:50;59.30;;;27.98;;
2159;SDS011;1086;51.610;6.928;2022-08-18T02:38:17;55.70;;;28.13;;
2159;SDS011;1086;51.610;6.928;2022-08-18T02:40:43;57.77;;;26.77;;
2159;SDS011;1086;51.610;6.928;2022-08-18T02:43:10;56.28;;;26.48;;
2159;SDS011;1086;51.610;6.928;2022-08-18T02:45:36;50.67;;;24.98;;
2159;SDS011;1086;51.610;6.928;2022-08-18T02:48:02;57.70;;;26.75;;
2159;SDS011;1086;51.610;6.928;2022-08-18T02:50:27;54.35;;;25.83;;
2159;SDS011;1086;51.610;6.928;2022-08-18T02:52:52;54.45;;;26.55;;
2159;SDS011;1086;51.610;6.928;2022-08-18T02:55:18;53.05;;;26.00;;
2159;SDS011;1086;51.610;6.928;2022-08-18T02:57:45;56.22;;;26.13;;
2159;SDS011;1086;51.610;6.928;2022-08-18T03:00:11;56.63;;;26.35;;
2159;SDS011;1086;51.610;6.928;2022-08-18T03:02:38;53.10;;;25.88;;
2159;SDS011;1086;51.610;6.928;2022-08-18T03:05:04;57.17;;;27.43;;
2159;SDS011;1086;51.610;6.928;2022-08-18T03:07:30;56.70;;;27.27;;
2159;SDS011;1086;51.610;6.928;2022-08-18T03:09:55;62.67;;;29.17;;
2159;SDS011;1086;51.610;6.928;2022-08-18T03:12:20;58.07;;;27.83;;
2159;SDS011;1086;51.610;6.928;2022-08-18T03:14:46;59.03;;;27.25;;
2159;SDS011;1086;51.610;6.928;2022-08-18T03:17:11;60.50;;;27.63;;
2159;SDS011;1086;51.610;6.928;2022-08-18T03:19:39;55.13;;;26.05;;
2159;SDS011;1086;51.610;6.928;2022-08-18T03:22:06;58.28;;;26.52;;
2159;SDS011;1086;51.610;6.928;2022-08-18T03:24:32;56.17;;;26.52;;
2159;SDS011;1086;51.610;6.928;2022-08-18T03:26:57;56.75;;;26.83;;
2159;SDS011;1086;51.610;6.928;2022-08-18T03:29:23;60.85;;;27.40;;
2159;SDS011;1086;51.610;6.928;2022-08-18T03:31:49;55.92;;;26.25;;
2159;SDS011;1086;51.610;6.928;2022-08-18T03:34:15;52.25;;;25.25;;
2159;SDS011;1086;51.610;6.928;2022-08-18T03:36:43;55.40;;;25.65;;
2159;SDS011;1086;51.610;6.928;2022-08-18T03:39:11;55.08;;;24.70;;
2159;SDS011;1086;51.610;6.928;2022-08-18T03:41:37;58.85;;;26.63;;
2159;SDS011;1086;51.610;6.928;2022-08-18T03:44:03;51.17;;;24.70;;
2159;SDS011;1086;51.610;6.928;2022-08-18T03:46:28;50.97;;;24.38;;
2159;SDS011;1086;51.610;6.928;2022-08-18T03:48:55;53.97;;;25.95;;
2159;SDS011;1086;51.610;6.928;2022-08-18T03:51:21;61.90;;;28.67;;
2159;SDS011;1086;51.610;6.928;2022-08-18T03:53:49;54.80;;;24.95;;
2159;SDS011;1086;51.610;6.928;2022-08-18T03:56:17;58.15;;;27.90;;
2159;SDS011;1086;51.610;6.928;2022-08-18T04:01:13;52.60;;;25.55;;
2159;SDS011;1086;51.610;6.928;2022-08-18T04:03:40;52.15;;;26.08;;
2159;SDS011;1086;51.610;6.928;2022-08-18T04:06:06;58.75;;;27.15;;
2159;SDS011;1086;51.610;6.928;2022-08-18T04:08:31;53.00;;;25.75;;
2159;SDS011;1086;51.610;6.928;2022-08-18T04:10:56;60.50;;;27.87;;
2159;SDS011;1086;51.610;6.928;2022-08-18T04:13:22;59.63;;;27.07;;
2159;SDS011;1086;51.610;6.928;2022-08-18T04:15:47;57.17;;;25.70;;
2159;SDS011;1086;51.610;6.928;2022-08-18T04:18:12;58.13;;;26.83;;
2159;SDS011;1086;51.610;6.928;2022-08-18T04:20:37;57.90;;;26.40;;
2159;SDS011;1086;51.610;6.928;2022-08-18T04:23:04;59.38;;;27.33;;
2159;SDS011;1086;51.610;6.928;2022-08-18T04:25:29;54.20;;;25.10;;
2159;SDS011;1086;51.610;6.928;2022-08-18T04:27:56;59.80;;;26.60;;
2159;SDS011;1086;51.610;6.928;2022-08-18T04:30:24;58.92;;;25.50;;
2159;SDS011;1086;51.610;6.928;2022-08-18T04:32:49;60.07;;;27.07;;
2159;SDS011;1086;51.610;6.928;2022-08-18T04:35:15;53.60;;;25.25;;
2159;SDS011;1086;51.610;6.928;2022-08-18T04:37:40;55.92;;;25.10;;
2159;SDS011;1086;51.610;6.928;2022-08-18T04:40:08;51.38;;;24.98;;
2159;SDS011;1086;51.610;6.928;2022-08-18T04:42:33;55.17;;;25.45;;
2159;SDS011;1086;51.610;6.928;2022-08-18T04:44:58;60.33;;;26.77;;
2159;SDS011;1086;51.610;6.928;2022-08-18T04:47:24;58.27;;;28.23;;
2159;SDS011;1086;51.610;6.928;2022-08-18T04:49:49;58.20;;;24.97;;
2159;SDS011;1086;51.610;6.928;2022-08-18T04:52:14;62.13;;;26.98;;
2159;SDS011;1086;51.610;6.928;2022-08-18T04:54:58;53.92;;;25.58;;
2159;SDS011;1086;51.610;6.928;2022-08-18T04:57:25;56.03;;;25.35;;
2159;SDS011;1086;51.610;6.928;2022-08-18T04:59:50;58.13;;;27.20;;
2159;SDS011;1086;51.610;6.928;2022-08-18T05:02:17;60.15;;;26.73;;
2159;SDS011;1086;51.610;6.928;2022-08-18T05:04:43;60.53;;;27.02;;
2159;SDS011;1086;51.610;6.928;2022-08-18T05:07:11;61.55;;;26.08;;
2159;SDS011;1086;51.610;6.928;2022-08-18T05:09:37;62.45;;;28.25;;
2159;SDS011;1086;51.610;6.928;2022-08-18T05:12:06;63.30;;;28.02;;
2159;SDS011;1086;51.610;6.928;2022-08-18T05:14:32;62.47;;;26.75;;
2159;SDS011;1086;51.610;6.928;2022-08-18T05:16:58;63.13;;;28.53;;
2159;SDS011;1086;51.610;6.928;2022-08-18T05:19:23;61.72;;;26.50;;
2159;SDS011;1086;51.610;6.928;2022-08-18T05:21:50;62.58;;;29.65;;
2159;SDS011;1086;51.610;6.928;2022-08-18T05:24:17;63.83;;;28.00;;
2159;SDS011;1086;51.610;6.928;2022-08-18T05:26:43;70.22;;;28.25;;
2159;SDS011;1086;51.610;6.928;2022-08-18T05:29:08;59.33;;;26.30;;
2159;SDS011;1086;51.610;6.928;2022-08-18T05:31:33;65.20;;;26.58;;
2159;SDS011;1086;51.610;6.928;2022-08-18T05:33:59;64.82;;;27.23;;
2159;SDS011;1086;51.610;6.928;2022-08-18T05:41:27;66.97;;;28.42;;
2159;SDS011;1086;51.610;6.928;2022-08-18T05:43:53;62.40;;;26.70;;
2159;SDS011;1086;51.610;6.928;2022-08-18T05:46:20;70.07;;;29.10;;
2159;SDS011;1086;51.610;6.928;2022-08-18T05:48:46;69.60;;;28.10;;
2159;SDS011;1086;51.610;6.928;2022-08-18T05:51:14;68.77;;;28.60;;
2159;SDS011;1086;51.610;6.928;2022-08-18T05:53:41;62.60;;;28.38;;
2159;SDS011;1086;51.610;6.928;2022-08-18T05:56:25;68.32;;;28.83;;
2159;SDS011;1086;51.610;6.928;2022-08-18T05:59:11;68.65;;;28.27;;
2159;SDS011;1086;51.610;6.928;2022-08-18T06:01:39;71.20;;;29.30;;
2159;SDS011;1086;51.610;6.928;2022-08-18T06:04:19;74.40;;;28.20;;
2159;SDS011;1086;51.610;6.928;2022-08-18T06:06:47;70.72;;;28.15;;
2159;SDS011;1086;51.610;6.928;2022-08-18T06:09:19;76.25;;;28.92;;
2159;SDS011;1086;51.610;6.928;2022-08-18T06:11:46;67.97;;;27.55;;
2159;SDS011;1086;51.610;6.928;2022-08-18T06:14:12;72.97;;;30.40;;
2159;SDS011;1086;51.610;6.928;2022-08-18T06:22:01;67.53;;;28.40;;
2159;SDS011;1086;51.610;6.928;2022-08-18T06:24:36;69.40;;;27.88;;
2159;SDS011;1086;51.610;6.928;2022-08-18T06:42:07;63.85;;;27.95;;
2159;SDS011;1086;51.610;6.928;2022-08-18T06:44:40;65.67;;;28.93;;
2159;SDS011;1086;51.610;6.928;2022-08-18T06:52:28;64.78;;;27.02;;
2159;SDS011;1086;51.610;6.928;2022-08-18T06:54:55;63.75;;;26.95;;
2159;SDS011;1086;51.610;6.928;2022-08-18T06:57:31;61.15;;;26.70;;
2159;SDS011;1086;51.610;6.928;2022-08-18T07:05:05;60.88;;;27.73;;
2159;SDS011;1086;51.610;6.928;2022-08-18T07:07:35;61.40;;;28.00;;
2159;SDS011;1086;51.610;6.928;2022-08-18T07:10:04;66.07;;;28.13;;
2159;SDS011;1086;51.610;6.928;2022-08-18T07:12:30;60.70;;;27.00;;
2159;SDS011;1086;51.610;6.928;2022-08-18T07:14:57;55.60;;;26.50;;
2159;SDS011;1086;51.610;6.928;2022-08-18T07:17:29;60.58;;;26.95;;
2159;SDS011;1086;51.610;6.928;2022-08-18T07:19:55;55.85;;;24.77;;
2159;SDS011;1086;51.610;6.928;2022-08-18T07:22:22;55.00;;;26.27;;
2159;SDS011;1086;51.610;6.928;2022-08-18T07:24:51;53.55;;;25.52;;
2159;SDS011;1086;51.610;6.928;2022-08-18T07:27:21;54.25;;;25.63;;
2159;SDS011;1086;51.610;6.928;2022-08-18T07:32:33;48.92;;;23.95;;
2159;SDS011;1086;51.610;6.928;2022-08-18T07:34:59;52.70;;;23.65;;
2159;SDS011;1086;51.610;6.928;2022-08-18T07:43:17;47.80;;;23.42;;
2159;SDS011;1086;51.610;6.928;2022-08-18T07:45:44;48.97;;;22.83;;
2159;SDS011;1086;51.610;6.928;2022-08-18T07:48:12;50.40;;;22.77;;
2159;SDS011;1086;51.610;6.928;2022-08-18T07:50:41;49.97;;;23.50;;
2159;SDS011;1086;51.610;6.928;2022-08-18T07:55:54;44.83;;;21.38;;
2159;SDS011;1086;51.610;6.928;2022-08-18T08:01:04;39.40;;;19.43;;
2159;SDS011;1086;51.610;6.928;2022-08-18T08:03:46;46.40;;;21.83;;
2159;SDS011;1086;51.610;6.928;2022-08-18T08:21:09;24.50;;;13.30;;
2159;SDS011;1086;51.610;6.928;2022-08-18T08:23:52;24.15;;;12.75;;
2159;SDS011;1086;51.610;6.928;2022-08-18T08:26:22;23.50;;;13.30;;
2159;SDS011;1086;51.610;6.928;2022-08-18T08:29:01;25.00;;;14.27;;
2159;SDS011;1086;51.610;6.928;2022-08-18T08:36:35;22.83;;;12.02;;
2159;SDS011;1086;51.610;6.928;2022-08-18T08:39:04;24.38;;;12.15;;
2159;SDS011;1086;51.610;6.928;2022-08-18T08:41:32;22.83;;;11.88;;
2159;SDS011;1086;51.610;6.928;2022-08-18T08:46:28;23.77;;;11.88;;
2159;SDS011;1086;51.610;6.928;2022-08-18T08:49:41;18.20;;;10.70;;
2159;SDS011;1086;51.610;6.928;2022-08-18T08:51:48;17.45;;;10.18;;
2159;SDS011;1086;51.610;6.928;2022-08-18T08:54:25;17.55;;;9.75;;
2159;SDS011;1086;51.610;6.928;2022-08-18T08:56:54;17.27;;;9.88;;
2159;SDS011;1086;51.610;6.928;2022-08-18T08:59:20;17.40;;;10.13;;
2159;SDS011;1086;51.610;6.928;2022-08-18T09:09:36;15.50;;;10.18;;
2159;SDS011;1086;51.610;6.928;2022-08-18T09:20:17;16.52;;;9.52;;
2159;SDS011;1086;51.610;6.928;2022-08-18T09:30:44;14.90;;;9.25;;
2159;SDS011;1086;51.610;6.928;2022-08-18T09:35:44;18.67;;;8.60;;
2159;SDS011;1086;51.610;6.928;2022-08-18T09:38:18;16.35;;;8.77;;
2159;SDS011;1086;51.610;6.928;2022-08-18T09:41:12;14.25;;;8.02;;
2159;SDS011;1086;51.610;6.928;2022-08-18T09:44:06;12.75;;;7.85;;
2159;SDS011;1086;51.610;6.928;2022-08-18T09:51:47;11.32;;;6.90;;
2159;SDS011;1086;51.610;6.928;2022-08-18T09:54:16;12.75;;;7.18;;
2159;SDS011;1086;51.610;6.928;2022-08-18T10:01:54;8.88;;;5.63;;
2159;SDS011;1086;51.610;6.928;2022-08-18T10:04:38;12.70;;;6.60;;
2159;SDS011;1086;51.610;6.928;2022-08-18T10:07:14;9.02;;;5.85;;
2159;SDS011;1086;51.610;6.928;2022-08-18T10:09:55;10.65;;;6.45;;
2159;SDS011;1086;51.610;6.928;2022-08-18T10:17:42;11.35;;;7.35;;
2159;SDS011;1086;51.610;6.928;2022-08-18T10:25:01;8.03;;;5.87;;
2159;SDS011;1086;51.610;6.928;2022-08-18T10:29:58;11.07;;;7.30;;
2159;SDS011;1086;51.610;6.928;2022-08-18T10:32:34;11.40;;;6.13;;
2159;SDS011;1086;51.610;6.928;2022-08-18T10:35:00;9.68;;;6.22;;
2159;SDS011;1086;51.610;6.928;2022-08-18T10:42:50;5.82;;;4.35;;
2159;SDS011;1086;51.610;6.928;2022-08-18T10:45:27;14.00;;;6.22;;
2159;SDS011;1086;51.610;6.928;2022-08-18T10:50:28;7.45;;;5.30;;
2159;SDS011;1086;51.610;6.928;2022-08-18T10:58:12;9.53;;;5.63;;
2159;SDS011;1086;51.610;6.928;2022-08-18T11:06:02;10.20;;;5.50;;
2159;SDS011;1086;51.610;6.928;2022-08-18T11:08:28;10.63;;;5.68;;
2159;SDS011;1086;51.610;6.928;2022-08-18T11:10:53;10.73;;;6.43;;
2159;SDS011;1086;51.610;6.928;2022-08-18T11:26:40;9.93;;;5.90;;
2159;SDS011;1086;51.610;6.928;2022-08-18T11:29:16;8.55;;;5.72;;
2159;SDS011;1086;51.610;6.928;2022-08-18T11:31:41;8.43;;;5.90;;
2159;SDS011;1086;51.610;6.928;2022-08-18T11:34:10;10.02;;;6.35;;
2159;SDS011;1086;51.610;6.928;2022-08-18T11:36:37;8.25;;;6.07;;
2159;SDS011;1086;51.610;6.928;2022-08-18T11:39:06;10.38;;;6.18;;
2159;SDS011;1086;51.610;6.928;2022-08-18T11:41:33;10.15;;;6.47;;
2159;SDS011;1086;51.610;6.928;2022-08-18T11:43:58;10.47;;;6.47;;
2159;SDS011;1086;51.610;6.928;2022-08-18T11:46:31;10.82;;;6.20;;
2159;SDS011;1086;51.610;6.928;2022-08-18T11:49:12;9.20;;;6.35;;
2159;SDS011;1086;51.610;6.928;2022-08-18T11:51:51;9.43;;;6.15;;
2159;SDS011;1086;51.610;6.928;2022-08-18T11:54:18;10.95;;;5.95;;
2159;SDS011;1086;51.610;6.928;2022-08-18T11:56:45;11.20;;;6.20;;
2159;SDS011;1086;51.610;6.928;2022-08-18T12:01:49;8.82;;;5.82;;
2159;SDS011;1086;51.610;6.928;2022-08-18T12:09:38;8.32;;;5.50;;
2159;SDS011;1086;51.610;6.928;2022-08-18T12:12:03;8.98;;;5.75;;
2159;SDS011;1086;51.610;6.928;2022-08-18T12:14:30;7.45;;;5.15;;
2159;SDS011;1086;51.610;6.928;2022-08-18T12:16:57;9.32;;;5.88;;
2159;SDS011;1086;51.610;6.928;2022-08-18T12:19:22;8.93;;;4.65;;
2159;SDS011;1086;51.610;6.928;2022-08-18T12:21:52;6.78;;;4.70;;
2159;SDS011;1086;51.610;6.928;2022-08-18T12:26:46;7.70;;;4.55;;
2159;SDS011;1086;51.610;6.928;2022-08-18T12:29:11;9.02;;;4.10;;
2159;SDS011;1086;51.610;6.928;2022-08-18T12:31:37;9.67;;;4.73;;
2159;SDS011;1086;51.610;6.928;2022-08-18T12:34:02;6.70;;;4.53;;
2159;SDS011;1086;51.610;6.928;2022-08-18T12:36:28;7.13;;;5.22;;
2159;SDS011;1086;51.610;6.928;2022-08-18T12:38:54;6.53;;;4.40;;
2159;SDS011;1086;51.610;6.928;2022-08-18T12:41:19;6.70;;;4.82;;
2159;SDS011;1086;51.610;6.928;2022-08-18T12:43:45;6.68;;;4.80;;
2159;SDS011;1086;51.610;6.928;2022-08-18T12:46:11;8.13;;;5.22;;
2159;SDS011;1086;51.610;6.928;2022-08-18T12:48:37;8.88;;;5.15;;
2159;SDS011;1086;51.610;6.928;2022-08-18T12:51:02;5.60;;;4.45;;
2159;SDS011;1086;51.610;6.928;2022-08-18T12:53:28;7.00;;;3.93;;
2159;SDS011;1086;51.610;6.928;2022-08-18T12:55:54;8.63;;;4.35;;
2159;SDS011;1086;51.610;6.928;2022-08-18T12:58:19;6.20;;;4.20;;
2159;SDS011;1086;51.610;6.928;2022-08-18T13:00:44;5.43;;;4.13;;
2159;SDS011;1086;51.610;6.928;2022-08-18T13:03:11;6.95;;;4.38;;
2159;SDS011;1086;51.610;6.928;2022-08-18T13:05:37;8.27;;;4.20;;
2159;SDS011;1086;51.610;6.928;2022-08-18T13:08:03;5.17;;;4.03;;
2159;SDS011;1086;51.610;6.928;2022-08-18T13:10:28;6.18;;;4.90;;
2159;SDS011;1086;51.610;6.928;2022-08-18T13:12:53;6.78;;;3.70;;
2159;SDS011;1086;51.610;6.928;2022-08-18T13:15:19;6.03;;;4.20;;
2159;SDS011;1086;51.610;6.928;2022-08-18T13:17:44;8.33;;;4.33;;
2159;SDS011;1086;51.610;6.928;2022-08-18T13:20:10;6.20;;;4.37;;
2159;SDS011;1086;51.610;6.928;2022-08-18T13:22:36;5.80;;;4.35;;
2159;SDS011;1086;51.610;6.928;2022-08-18T13:25:04;5.57;;;4.28;;
2159;SDS011;1086;51.610;6.928;2022-08-18T13:27:31;6.68;;;4.70;;
2159;SDS011;1086;51.610;6.928;2022-08-18T13:29:56;6.18;;;4.72;;
2159;SDS011;1086;51.610;6.928;2022-08-18T13:32:21;6.47;;;4.30;;
2159;SDS011;1086;51.610;6.928;2022-08-18T13:34:47;7.63;;;4.13;;
2159;SDS011;1086;51.610;6.928;2022-08-18T13:37:13;7.40;;;4.20;;
2159;SDS011;1086;51.610;6.928;2022-08-18T13:39:39;5.32;;;3.40;;
2159;SDS011;1086;51.610;6.928;2022-08-18T13:42:04;8.10;;;3.97;;
2159;SDS011;1086;51.610;6.928;2022-08-18T13:44:30;5.53;;;4.20;;
2159;SDS011;1086;51.610;6.928;2022-08-18T13:46:56;4.25;;;3.58;;
2159;SDS011;1086;51.610;6.928;2022-08-18T13:49:22;4.68;;;3.63;;
2159;SDS011;1086;51.610;6.928;2022-08-18T13:51:48;6.30;;;4.28;;
2159;SDS011;1086;51.610;6.928;2022-08-18T13:54:31;6.22;;;4.35;;
2159;SDS011;1086;51.610;6.928;2022-08-18T13:56:58;5.78;;;4.05;;
2159;SDS011;1086;51.610;6.928;2022-08-18T13:59:25;6.55;;;4.60;;
2159;SDS011;1086;51.610;6.928;2022-08-18T14:02:02;6.05;;;4.78;;
2159;SDS011;1086;51.610;6.928;2022-08-18T14:04:29;6.65;;;4.32;;
2159;SDS011;1086;51.610;6.928;2022-08-18T14:06:54;5.03;;;3.67;;
2159;SDS011;1086;51.610;6.928;2022-08-18T14:09:20;6.47;;;3.80;;
2159;SDS011;1086;51.610;6.928;2022-08-18T14:11:46;5.97;;;3.97;;
2159;SDS011;1086;51.610;6.928;2022-08-18T14:14:11;4.00;;;3.60;;
2159;SDS011;1086;51.610;6.928;2022-08-18T14:16:36;5.67;;;4.17;;
2159;SDS011;1086;51.610;6.928;2022-08-18T14:19:02;5.77;;;4.23;;
2159;SDS011;1086;51.610;6.928;2022-08-18T14:21:47;6.57;;;4.28;;
2159;SDS011;1086;51.610;6.928;2022-08-18T14:24:31;5.07;;;3.83;;
2159;SDS011;1086;51.610;6.928;2022-08-18T14:27:16;5.15;;;3.80;;
2159;SDS011;1086;51.610;6.928;2022-08-18T14:29:41;5.47;;;3.90;;
2159;SDS011;1086;51.610;6.928;2022-08-18T14:32:07;4.95;;;3.70;;
2159;SDS011;1086;51.610;6.928;2022-08-18T14:34:33;5.35;;;3.60;;
2159;SDS011;1086;51.610;6.928;2022-08-18T14:36:59;4.97;;;3.45;;
2159;SDS011;1086;51.610;6.928;2022-08-18T14:39:46;5.03;;;3.65;;
2159;SDS011;1086;51.610;6.928;2022-08-18T14:42:13;4.00;;;3.28;;
2159;SDS011;1086;51.610;6.928;2022-08-18T14:44:39;4.32;;;3.65;;
2159;SDS011;1086;51.610;6.928;2022-08-18T14:47:04;4.65;;;3.50;;
2159;SDS011;1086;51.610;6.928;2022-08-18T14:49:30;5.05;;;3.92;;
2159;SDS011;1086;51.610;6.928;2022-08-18T14:51:58;3.30;;;2.83;;
2159;SDS011;1086;51.610;6.928;2022-08-18T14:54:24;5.50;;;3.38;;
2159;SDS011;1086;51.610;6.928;2022-08-18T14:56:50;6.20;;;3.65;;
2159;SDS011;1086;51.610;6.928;2022-08-18T14:59:15;4.10;;;3.30;;
2159;SDS011;1086;51.610;6.928;2022-08-18T15:01:40;4.67;;;3.60;;
2159;SDS011;1086;51.610;6.928;2022-08-18T15:04:07;3.95;;;3.20;;
2159;SDS011;1086;51.610;6.928;2022-08-18T15:06:32;5.93;;;3.50;;
2159;SDS011;1086;51.610;6.928;2022-08-18T15:08:57;5.20;;;3.20;;
2159;SDS011;1086;51.610;6.928;2022-08-18T15:11:23;3.53;;;3.07;;
2159;SDS011;1086;51.610;6.928;2022-08-18T15:13:48;4.70;;;3.58;;
2159;SDS011;1086;51.610;6.928;2022-08-18T15:16:15;6.80;;;3.08;;
2159;SDS011;1086;51.610;6.928;2022-08-18T15:18:41;4.53;;;3.22;;
2159;SDS011;1086;51.610;6.928;2022-08-18T15:21:07;4.93;;;3.40;;
2159;SDS011;1086;51.610;6.928;2022-08-18T15:23:51;7.93;;;3.65;;
2159;SDS011;1086;51.610;6.928;2022-08-18T15:26:35;4.45;;;3.45;;
2159;SDS011;1086;51.610;6.928;2022-08-18T15:29:03;5.78;;;3.78;;
2159;SDS011;1086;51.610;6.928;2022-08-18T15:31:32;4.97;;;3.30;;
2159;SDS011;1086;51.610;6.928;2022-08-18T15:33:57;4.63;;;3.03;;
2159;SDS011;1086;51.610;6.928;2022-08-18T15:36:22;3.60;;;2.97;;
2159;SDS011;1086;51.610;6.928;2022-08-18T15:38:48;5.17;;;3.50;;
2159;SDS011;1086;51.610;6.928;2022-08-18T15:44:14;4.18;;;3.42;;
2159;SDS011;1086;51.610;6.928;2022-08-18T15:46:39;7.15;;;3.63;;
2159;SDS011;1086;51.610;6.928;2022-08-18T15:49:05;6.40;;;3.53;;
2159;SDS011;1086;51.610;6.928;2022-08-18T15:51:32;4.55;;;3.30;;
2159;SDS011;1086;51.610;6.928;2022-08-18T15:53:57;4.28;;;3.33;;
2159;SDS011;1086;51.610;6.928;2022-08-18T15:56:24;6.90;;;3.83;;
2159;SDS011;1086;51.610;6.928;2022-08-18T15:58:50;4.72;;;2.97;;
2159;SDS011;1086;51.610;6.928;2022-08-18T16:01:16;3.28;;;2.97;;
2159;SDS011;1086;51.610;6.928;2022-08-18T16:03:41;4.40;;;2.80;;
2159;SDS011;1086;51.610;6.928;2022-08-18T16:06:08;5.10;;;2.90;;
2159;SDS011;1086;51.610;6.928;2022-08-18T16:08:36;3.95;;;3.10;;
2159;SDS011;1086;51.610;6.928;2022-08-18T16:11:05;3.10;;;2.35;;
2159;SDS011;1086;51.610;6.928;2022-08-18T16:13:30;3.80;;;2.88;;
2159;SDS011;1086;51.610;6.928;2022-08-18T16:15:56;3.42;;;3.00;;
2159;SDS011;1086;51.610;6.928;2022-08-18T16:18:21;2.97;;;2.67;;
2159;SDS011;1086;51.610;6.928;2022-08-18T16:20:46;5.40;;;3.20;;
2159;SDS011;1086;51.610;6.928;2022-08-18T16:23:12;5.93;;;2.40;;
2159;SDS011;1086;51.610;6.928;2022-08-18T16:25:38;3.97;;;2.92;;
2159;SDS011;1086;51.610;6.928;2022-08-18T16:28:03;4.25;;;2.80;;
2159;SDS011;1086;51.610;6.928;2022-08-18T16:30:29;4.82;;;2.22;;
2159;SDS011;1086;51.610;6.928;2022-08-18T16:32:54;4.30;;;2.70;;
2159;SDS011;1086;51.610;6.928;2022-08-18T16:35:20;2.72;;;2.33;;
2159;SDS011;1086;51.610;6.928;2022-08-18T16:37:46;4.05;;;2.78;;
2159;SDS011;1086;51.610;6.928;2022-08-18T16:40:15;2.53;;;2.20;;
2159;SDS011;1086;51.610;6.928;2022-08-18T16:42:41;2.85;;;2.53;;
2159;SDS011;1086;51.610;6.928;2022-08-18T16:45:07;3.92;;;2.58;;
2159;SDS011;1086;51.610;6.928;2022-08-18T16:47:33;4.63;;;2.97;;
2159;SDS011;1086;51.610;6.928;2022-08-18T16:50:03;4.83;;;2.60;;
2159;SDS011;1086;51.610;6.928;2022-08-18T16:52:29;3.47;;;2.55;;
2159;SDS011;1086;51.610;6.928;2022-08-18T16:54:54;4.53;;;2.70;;
2159;SDS011;1086;51.610;6.928;2022-08-18T16:57:20;2.87;;;2.40;;
2159;SDS011;1086;51.610;6.928;2022-08-18T17:00:05;3.97;;;2.83;;
2159;SDS011;1086;51.610;6.928;2022-08-18T17:02:49;3.03;;;2.50;;
2159;SDS011;1086;51.610;6.928;2022-08-18T17:05:33;3.45;;;2.58;;
2159;SDS011;1086;51.610;6.928;2022-08-18T17:08:02;6.00;;;2.80;;
2159;SDS011;1086;51.610;6.928;2022-08-18T17:10:29;5.05;;;2.88;;
2159;SDS011;1086;51.610;6.928;2022-08-18T17:12:56;3.10;;;2.70;;
2159;SDS011;1086;51.610;6.928;2022-08-18T17:15:38;4.75;;;3.00;;
2159;SDS011;1086;51.610;6.928;2022-08-18T17:18:03;3.53;;;2.77;;
2159;SDS011;1086;51.610;6.928;2022-08-18T17:20:29;3.85;;;3.03;;
2159;SDS011;1086;51.610;6.928;2022-08-18T17:23:41;3.53;;;2.67;;
2159;SDS011;1086;51.610;6.928;2022-08-18T17:27:07;4.15;;;2.70;;
2159;SDS011;1086;51.610;6.928;2022-08-18T17:32:41;5.35;;;3.35;;
2159;SDS011;1086;51.610;6.928;2022-08-18T17:35:55;3.38;;;2.65;;
2159;SDS011;1086;51.610;6.928;2022-08-18T17:38:00;4.10;;;2.80;;
2159;SDS011;1086;51.610;6.928;2022-08-18T17:40:29;4.55;;;2.83;;
2159;SDS011;1086;51.610;6.928;2022-08-18T17:42:55;5.28;;;3.00;;
2159;SDS011;1086;51.610;6.928;2022-08-18T17:45:21;2.78;;;2.38;;
2159;SDS011;1086;51.610;6.928;2022-08-18T17:48:00;5.20;;;2.80;;
2159;SDS011;1086;51.610;6.928;2022-08-18T17:50:32;5.00;;;3.05;;
2159;SDS011;1086;51.610;6.928;2022-08-18T17:53:16;4.23;;;2.67;;
2159;SDS011;1086;51.610;6.928;2022-08-18T18:08:06;4.80;;;3.45;;
2159;SDS011;1086;51.610;6.928;2022-08-18T18:11:15;4.78;;;2.90;;
2159;SDS011;1086;51.610;6.928;2022-08-18T18:22:38;3.65;;;2.80;;
2159;SDS011;1086;51.610;6.928;2022-08-18T18:25:05;4.30;;;3.30;;
2159;SDS011;1086;51.610;6.928;2022-08-18T18:30:00;6.95;;;2.92;;
2159;SDS011;1086;51.610;6.928;2022-08-18T18:32:34;4.82;;;2.78;;
2159;SDS011;1086;51.610;6.928;2022-08-18T18:37:28;3.17;;;2.70;;